sensor_id;sensor_type;location;lat;lon;timestamp;temperature;humidity
39021;DHT22;25188;51.958;5.842;2023-10-09T00:00:16;14.40;99.90
39021;DHT22;25188;51.958;5.842;2023-10-09T00:03:01;14.50;99.90
39021;DHT22;25188;51.958;5.842;2023-10-09T00:05:32;14.40;99.90
39021;DHT22;25188;51.958;5.842;2023-10-09T00:08:24;14.50;99.90
39021;DHT22;25188;51.958;5.842;2023-10-09T00:10:57;14.40;99.90
39021;DHT22;25188;51.958;5.842;2023-10-09T00:13:46;14.50;99.90
39021;DHT22;25188;51.958;5.842;2023-10-09T00:16:19;14.50;99.90
39021;DHT22;25188;51.958;5.842;2023-10-09T00:19:04;14.40;99.90
39021;DHT22;25188;51.958;5.842;2023-10-09T00:21:45;14.40;99.90
39021;DHT22;25188;51.958;5.842;2023-10-09T00:24:12;14.40;99.90
39021;DHT22;25188;51.958;5.842;2023-10-09T00:26:50;14.40;99.90
39021;DHT22;25188;51.958;5.842;2023-10-09T00:29:17;14.40;99.90
39021;DHT22;25188;51.958;5.842;2023-10-09T00:31:52;14.40;99.90
39021;DHT22;25188;51.958;5.842;2023-10-09T00:34:29;14.40;99.90
39021;DHT22;25188;51.958;5.842;2023-10-09T00:36:56;14.40;99.90
39021;DHT22;25188;51.958;5.842;2023-10-09T00:39:29;14.40;99.90
39021;DHT22;25188;51.958;5.842;2023-10-09T00:42:04;14.40;99.90
39021;DHT22;25188;51.958;5.842;2023-10-09T00:44:32;14.40;99.90
39021;DHT22;25188;51.958;5.842;2023-10-09T00:47:06;14.40;99.90
39021;DHT22;25188;51.958;5.842;2023-10-09T00:52:31;14.40;99.90
39021;DHT22;25188;51.958;5.842;2023-10-09T00:55:02;14.40;99.90
39021;DHT22;25188;51.958;5.842;2023-10-09T00:57:34;14.30;99.90
39021;DHT22;25188;51.958;5.842;2023-10-09T01:00:03;14.30;99.90
39021;DHT22;25188;51.958;5.842;2023-10-09T01:02:36;14.30;99.90
39021;DHT22;25188;51.958;5.842;2023-10-09T01:05:05;14.30;99.90
39021;DHT22;25188;51.958;5.842;2023-10-09T01:07:38;14.30;99.90
39021;DHT22;25188;51.958;5.842;2023-10-09T01:10:06;14.20;99.90
39021;DHT22;25188;51.958;5.842;2023-10-09T01:12:35;14.20;99.90
39021;DHT22;25188;51.958;5.842;2023-10-09T01:15:08;14.30;99.90
39021;DHT22;25188;51.958;5.842;2023-10-09T01:17:34;14.30;99.90
39021;DHT22;25188;51.958;5.842;2023-10-09T01:20:05;14.30;99.90
39021;DHT22;25188;51.958;5.842;2023-10-09T01:22:40;14.30;99.90
39021;DHT22;25188;51.958;5.842;2023-10-09T01:25:08;14.30;99.90
39021;DHT22;25188;51.958;5.842;2023-10-09T01:27:35;14.30;99.90
39021;DHT22;25188;51.958;5.842;2023-10-09T01:30:06;14.30;99.90
39021;DHT22;25188;51.958;5.842;2023-10-09T01:32:32;14.40;99.90
39021;DHT22;25188;51.958;5.842;2023-10-09T01:35:00;14.40;99.90
39021;DHT22;25188;51.958;5.842;2023-10-09T01:37:25;14.40;99.90
39021;DHT22;25188;51.958;5.842;2023-10-09T01:39:55;14.40;99.90
39021;DHT22;25188;51.958;5.842;2023-10-09T01:42:25;14.40;99.90
39021;DHT22;25188;51.958;5.842;2023-10-09T01:45:00;14.40;99.90
39021;DHT22;25188;51.958;5.842;2023-10-09T01:47:41;14.40;99.90
39021;DHT22;25188;51.958;5.842;2023-10-09T01:50:11;14.40;99.90
39021;DHT22;25188;51.958;5.842;2023-10-09T01:52:45;14.50;99.90
39021;DHT22;25188;51.958;5.842;2023-10-09T01:55:11;14.50;99.90
39021;DHT22;25188;51.958;5.842;2023-10-09T01:57:53;14.50;99.90
39021;DHT22;25188;51.958;5.842;2023-10-09T02:00:19;14.50;99.90
39021;DHT22;25188;51.958;5.842;2023-10-09T02:02:49;14.50;99.90
39021;DHT22;25188;51.958;5.842;2023-10-09T02:05:16;14.60;99.90
39021;DHT22;25188;51.958;5.842;2023-10-09T02:07:42;14.60;99.90
39021;DHT22;25188;51.958;5.842;2023-10-09T02:10:19;14.60;99.90
39021;DHT22;25188;51.958;5.842;2023-10-09T02:12:48;14.70;99.90
39021;DHT22;25188;51.958;5.842;2023-10-09T02:15:27;14.70;99.90
39021;DHT22;25188;51.958;5.842;2023-10-09T02:18:22;14.70;99.90
39021;DHT22;25188;51.958;5.842;2023-10-09T02:23:38;14.70;99.90
39021;DHT22;25188;51.958;5.842;2023-10-09T02:26:10;14.70;99.90
39021;DHT22;25188;51.958;5.842;2023-10-09T02:28:43;14.70;99.90
39021;DHT22;25188;51.958;5.842;2023-10-09T02:31:12;14.80;99.90
39021;DHT22;25188;51.958;5.842;2023-10-09T02:33:39;14.80;99.90
39021;DHT22;25188;51.958;5.842;2023-10-09T02:36:07;14.80;99.90
39021;DHT22;25188;51.958;5.842;2023-10-09T02:38:34;14.80;99.90
39021;DHT22;25188;51.958;5.842;2023-10-09T02:41:02;14.80;99.90
39021;DHT22;25188;51.958;5.842;2023-10-09T02:43:31;14.90;99.90
39021;DHT22;25188;51.958;5.842;2023-10-09T02:46:21;14.90;99.90
39021;DHT22;25188;51.958;5.842;2023-10-09T02:48:55;14.90;99.90
39021;DHT22;25188;51.958;5.842;2023-10-09T02:51:26;14.90;99.90
39021;DHT22;25188;51.958;5.842;2023-10-09T02:53:56;14.90;99.90
39021;DHT22;25188;51.958;5.842;2023-10-09T02:56:24;14.90;99.90
39021;DHT22;25188;51.958;5.842;2023-10-09T02:58:53;14.90;99.90
39021;DHT22;25188;51.958;5.842;2023-10-09T03:01:19;15.00;99.90
39021;DHT22;25188;51.958;5.842;2023-10-09T03:03:45;15.00;99.90
39021;DHT22;25188;51.958;5.842;2023-10-09T03:06:11;15.00;99.90
39021;DHT22;25188;51.958;5.842;2023-10-09T03:08:38;15.00;99.90
39021;DHT22;25188;51.958;5.842;2023-10-09T03:11:09;15.00;99.90
39021;DHT22;25188;51.958;5.842;2023-10-09T03:13:42;15.00;99.90
39021;DHT22;25188;51.958;5.842;2023-10-09T03:16:09;15.10;99.90
39021;DHT22;25188;51.958;5.842;2023-10-09T03:18:52;15.10;99.90
39021;DHT22;25188;51.958;5.842;2023-10-09T03:21:19;15.10;99.90
39021;DHT22;25188;51.958;5.842;2023-10-09T03:23:48;15.10;99.90
39021;DHT22;25188;51.958;5.842;2023-10-09T03:26:20;15.10;99.90
39021;DHT22;25188;51.958;5.842;2023-10-09T03:28:47;15.10;99.90
39021;DHT22;25188;51.958;5.842;2023-10-09T03:31:13;15.20;99.90
39021;DHT22;25188;51.958;5.842;2023-10-09T03:33:39;15.20;99.90
39021;DHT22;25188;51.958;5.842;2023-10-09T03:36:05;15.20;99.90
39021;DHT22;25188;51.958;5.842;2023-10-09T03:38:42;15.20;99.90
39021;DHT22;25188;51.958;5.842;2023-10-09T03:41:08;15.20;99.90
39021;DHT22;25188;51.958;5.842;2023-10-09T03:43:38;15.20;99.90
39021;DHT22;25188;51.958;5.842;2023-10-09T03:46:09;15.30;99.90
39021;DHT22;25188;51.958;5.842;2023-10-09T03:48:50;15.20;99.90
39021;DHT22;25188;51.958;5.842;2023-10-09T03:51:18;15.30;99.90
39021;DHT22;25188;51.958;5.842;2023-10-09T03:53:50;15.30;99.90
39021;DHT22;25188;51.958;5.842;2023-10-09T03:56:17;15.30;99.90
39021;DHT22;25188;51.958;5.842;2023-10-09T03:58:45;15.30;99.90
39021;DHT22;25188;51.958;5.842;2023-10-09T04:01:18;15.30;99.90
39021;DHT22;25188;51.958;5.842;2023-10-09T04:03:47;15.40;99.90
39021;DHT22;25188;51.958;5.842;2023-10-09T04:06:12;15.40;99.90
39021;DHT22;25188;51.958;5.842;2023-10-09T04:08:38;15.40;99.90
39021;DHT22;25188;51.958;5.842;2023-10-09T04:11:12;15.40;99.90
39021;DHT22;25188;51.958;5.842;2023-10-09T04:13:45;15.40;99.90
39021;DHT22;25188;51.958;5.842;2023-10-09T04:16:15;15.40;99.90
39021;DHT22;25188;51.958;5.842;2023-10-09T04:19:07;15.40;99.90
39021;DHT22;25188;51.958;5.842;2023-10-09T04:21:37;15.40;99.90
39021;DHT22;25188;51.958;5.842;2023-10-09T04:24:05;15.50;99.90
39021;DHT22;25188;51.958;5.842;2023-10-09T04:26:34;15.50;99.90
39021;DHT22;25188;51.958;5.842;2023-10-09T04:29:01;15.50;99.90
39021;DHT22;25188;51.958;5.842;2023-10-09T04:31:28;15.50;99.90
39021;DHT22;25188;51.958;5.842;2023-10-09T04:34:00;15.50;99.90
39021;DHT22;25188;51.958;5.842;2023-10-09T04:36:45;15.50;99.90
39021;DHT22;25188;51.958;5.842;2023-10-09T04:39:17;15.60;99.90
39021;DHT22;25188;51.958;5.842;2023-10-09T04:41:56;15.60;99.90
39021;DHT22;25188;51.958;5.842;2023-10-09T04:44:42;15.60;99.90
39021;DHT22;25188;51.958;5.842;2023-10-09T04:47:27;15.60;99.90
39021;DHT22;25188;51.958;5.842;2023-10-09T04:50:09;15.60;99.90
39021;DHT22;25188;51.958;5.842;2023-10-09T04:53:01;15.60;99.90
39021;DHT22;25188;51.958;5.842;2023-10-09T04:55:40;15.60;99.90
39021;DHT22;25188;51.958;5.842;2023-10-09T04:58:10;15.60;99.90
39021;DHT22;25188;51.958;5.842;2023-10-09T05:00:49;15.60;99.90
39021;DHT22;25188;51.958;5.842;2023-10-09T05:03:30;15.60;99.90
39021;DHT22;25188;51.958;5.842;2023-10-09T05:06:04;15.70;99.90
39021;DHT22;25188;51.958;5.842;2023-10-09T05:09:06;15.60;99.90
39021;DHT22;25188;51.958;5.842;2023-10-09T05:11:37;15.60;99.90
39021;DHT22;25188;51.958;5.842;2023-10-09T05:14:21;15.70;99.90
39021;DHT22;25188;51.958;5.842;2023-10-09T05:16:53;15.70;99.90
39021;DHT22;25188;51.958;5.842;2023-10-09T05:19:29;15.70;99.90
39021;DHT22;25188;51.958;5.842;2023-10-09T05:22:09;15.70;99.90
39021;DHT22;25188;51.958;5.842;2023-10-09T05:24:43;15.70;99.90
39021;DHT22;25188;51.958;5.842;2023-10-09T05:27:13;15.70;99.90
39021;DHT22;25188;51.958;5.842;2023-10-09T05:29:49;15.80;99.90
39021;DHT22;25188;51.958;5.842;2023-10-09T05:32:47;15.80;99.90
39021;DHT22;25188;51.958;5.842;2023-10-09T05:35:14;15.80;99.90
39021;DHT22;25188;51.958;5.842;2023-10-09T05:37:45;15.80;99.90
39021;DHT22;25188;51.958;5.842;2023-10-09T05:40:12;15.80;99.90
39021;DHT22;25188;51.958;5.842;2023-10-09T05:42:41;15.80;99.90
39021;DHT22;25188;51.958;5.842;2023-10-09T05:45:14;15.80;99.90
39021;DHT22;25188;51.958;5.842;2023-10-09T05:48:04;15.80;99.90
39021;DHT22;25188;51.958;5.842;2023-10-09T05:50:51;15.80;99.90
39021;DHT22;25188;51.958;5.842;2023-10-09T05:53:23;15.80;99.90
39021;DHT22;25188;51.958;5.842;2023-10-09T05:56:12;15.80;99.90
39021;DHT22;25188;51.958;5.842;2023-10-09T05:58:56;15.90;99.90
39021;DHT22;25188;51.958;5.842;2023-10-09T06:01:40;15.90;99.90
39021;DHT22;25188;51.958;5.842;2023-10-09T06:04:25;15.90;99.90
39021;DHT22;25188;51.958;5.842;2023-10-09T06:07:10;15.90;99.90
39021;DHT22;25188;51.958;5.842;2023-10-09T06:09:39;15.90;99.90
39021;DHT22;25188;51.958;5.842;2023-10-09T06:12:35;15.90;99.90
39021;DHT22;25188;51.958;5.842;2023-10-09T06:15:10;15.90;99.90
39021;DHT22;25188;51.958;5.842;2023-10-09T06:17:56;15.90;99.90
39021;DHT22;25188;51.958;5.842;2023-10-09T06:20:42;15.90;99.90
39021;DHT22;25188;51.958;5.842;2023-10-09T06:23:26;15.90;99.90
39021;DHT22;25188;51.958;5.842;2023-10-09T06:26:11;16.00;99.90
39021;DHT22;25188;51.958;5.842;2023-10-09T06:28:50;16.00;99.90
39021;DHT22;25188;51.958;5.842;2023-10-09T06:31:35;16.00;99.90
39021;DHT22;25188;51.958;5.842;2023-10-09T06:34:21;16.00;99.90
39021;DHT22;25188;51.958;5.842;2023-10-09T06:36:58;16.00;99.90
39021;DHT22;25188;51.958;5.842;2023-10-09T06:39:29;16.00;99.90
39021;DHT22;25188;51.958;5.842;2023-10-09T06:42:13;16.10;99.90
39021;DHT22;25188;51.958;5.842;2023-10-09T06:45:01;16.10;99.90
39021;DHT22;25188;51.958;5.842;2023-10-09T06:47:30;16.20;99.90
39021;DHT22;25188;51.958;5.842;2023-10-09T06:50:02;16.10;99.90
39021;DHT22;25188;51.958;5.842;2023-10-09T06:52:47;16.20;99.90
39021;DHT22;25188;51.958;5.842;2023-10-09T06:55:40;16.20;99.90
39021;DHT22;25188;51.958;5.842;2023-10-09T06:58:19;16.20;99.90
39021;DHT22;25188;51.958;5.842;2023-10-09T07:00:51;16.20;99.90
39021;DHT22;25188;51.958;5.842;2023-10-09T07:03:37;16.20;99.90
39021;DHT22;25188;51.958;5.842;2023-10-09T07:06:18;16.30;99.90
39021;DHT22;25188;51.958;5.842;2023-10-09T07:08:54;16.30;99.90
39021;DHT22;25188;51.958;5.842;2023-10-09T07:11:33;16.30;99.90
39021;DHT22;25188;51.958;5.842;2023-10-09T07:14:17;16.30;99.90
39021;DHT22;25188;51.958;5.842;2023-10-09T07:17:02;16.40;99.90
39021;DHT22;25188;51.958;5.842;2023-10-09T07:19:42;16.40;99.90
39021;DHT22;25188;51.958;5.842;2023-10-09T07:22:08;16.40;99.90
39021;DHT22;25188;51.958;5.842;2023-10-09T07:27:22;16.50;99.90
39021;DHT22;25188;51.958;5.842;2023-10-09T07:30:07;16.50;99.90
39021;DHT22;25188;51.958;5.842;2023-10-09T07:32:53;16.60;99.90
39021;DHT22;25188;51.958;5.842;2023-10-09T07:35:20;16.60;99.90
39021;DHT22;25188;51.958;5.842;2023-10-09T07:38:06;16.60;99.90
39021;DHT22;25188;51.958;5.842;2023-10-09T07:40:38;16.60;99.90
39021;DHT22;25188;51.958;5.842;2023-10-09T07:43:28;16.70;99.90
39021;DHT22;25188;51.958;5.842;2023-10-09T07:46:02;16.70;99.90
39021;DHT22;25188;51.958;5.842;2023-10-09T07:48:47;16.80;99.90
39021;DHT22;25188;51.958;5.842;2023-10-09T07:51:18;16.80;99.90
39021;DHT22;25188;51.958;5.842;2023-10-09T07:53:52;16.80;99.90
39021;DHT22;25188;51.958;5.842;2023-10-09T07:56:39;16.80;99.90
39021;DHT22;25188;51.958;5.842;2023-10-09T07:59:09;16.90;99.90
39021;DHT22;25188;51.958;5.842;2023-10-09T08:01:41;16.90;99.90
39021;DHT22;25188;51.958;5.842;2023-10-09T08:04:28;16.90;99.90
39021;DHT22;25188;51.958;5.842;2023-10-09T08:07:04;17.00;99.90
39021;DHT22;25188;51.958;5.842;2023-10-09T08:09:33;17.00;99.90
39021;DHT22;25188;51.958;5.842;2023-10-09T08:12:19;17.10;99.90
39021;DHT22;25188;51.958;5.842;2023-10-09T08:15:05;17.20;99.90
39021;DHT22;25188;51.958;5.842;2023-10-09T08:17:54;17.30;99.90
39021;DHT22;25188;51.958;5.842;2023-10-09T08:20:24;17.40;99.90
39021;DHT22;25188;51.958;5.842;2023-10-09T08:22:55;17.50;99.90
39021;DHT22;25188;51.958;5.842;2023-10-09T08:25:26;17.50;99.90
39021;DHT22;25188;51.958;5.842;2023-10-09T08:27:57;17.60;99.90
39021;DHT22;25188;51.958;5.842;2023-10-09T08:30:25;17.70;99.90
39021;DHT22;25188;51.958;5.842;2023-10-09T08:32:51;17.70;99.90
39021;DHT22;25188;51.958;5.842;2023-10-09T08:35:30;17.70;99.90
39021;DHT22;25188;51.958;5.842;2023-10-09T08:37:58;17.70;99.90
39021;DHT22;25188;51.958;5.842;2023-10-09T08:40:32;17.70;99.90
39021;DHT22;25188;51.958;5.842;2023-10-09T08:43:08;17.70;99.90
39021;DHT22;25188;51.958;5.842;2023-10-09T08:45:37;17.80;99.90
39021;DHT22;25188;51.958;5.842;2023-10-09T08:48:05;17.90;99.90
39021;DHT22;25188;51.958;5.842;2023-10-09T08:50:32;17.90;99.90
39021;DHT22;25188;51.958;5.842;2023-10-09T08:53:00;18.00;99.90
39021;DHT22;25188;51.958;5.842;2023-10-09T08:55:28;18.10;99.90
39021;DHT22;25188;51.958;5.842;2023-10-09T08:57:54;18.10;99.90
39021;DHT22;25188;51.958;5.842;2023-10-09T09:00:23;18.20;99.90
39021;DHT22;25188;51.958;5.842;2023-10-09T09:02:58;18.20;99.90
39021;DHT22;25188;51.958;5.842;2023-10-09T09:05:25;18.20;99.90
39021;DHT22;25188;51.958;5.842;2023-10-09T09:07:54;18.30;99.90
39021;DHT22;25188;51.958;5.842;2023-10-09T09:10:31;18.30;99.90
39021;DHT22;25188;51.958;5.842;2023-10-09T09:13:14;18.40;99.90
39021;DHT22;25188;51.958;5.842;2023-10-09T09:15:47;18.40;99.90
39021;DHT22;25188;51.958;5.842;2023-10-09T09:18:12;18.50;99.90
39021;DHT22;25188;51.958;5.842;2023-10-09T09:20:43;18.60;99.90
39021;DHT22;25188;51.958;5.842;2023-10-09T09:23:12;18.60;99.90
39021;DHT22;25188;51.958;5.842;2023-10-09T09:25:47;18.60;99.90
39021;DHT22;25188;51.958;5.842;2023-10-09T09:28:14;18.60;99.90
39021;DHT22;25188;51.958;5.842;2023-10-09T09:30:47;18.70;99.90
39021;DHT22;25188;51.958;5.842;2023-10-09T09:33:27;18.70;99.90
39021;DHT22;25188;51.958;5.842;2023-10-09T09:36:06;18.70;99.90
39021;DHT22;25188;51.958;5.842;2023-10-09T09:38:34;18.80;99.90
39021;DHT22;25188;51.958;5.842;2023-10-09T09:41:19;18.80;99.90
39021;DHT22;25188;51.958;5.842;2023-10-09T09:43:55;18.80;99.90
39021;DHT22;25188;51.958;5.842;2023-10-09T09:46:33;18.90;99.90
39021;DHT22;25188;51.958;5.842;2023-10-09T09:49:01;19.00;99.90
39021;DHT22;25188;51.958;5.842;2023-10-09T09:51:30;19.00;99.90
39021;DHT22;25188;51.958;5.842;2023-10-09T09:53:56;19.10;99.90
39021;DHT22;25188;51.958;5.842;2023-10-09T09:56:25;19.20;99.90
39021;DHT22;25188;51.958;5.842;2023-10-09T09:58:51;19.40;99.90
39021;DHT22;25188;51.958;5.842;2023-10-09T10:01:25;19.40;99.90
39021;DHT22;25188;51.958;5.842;2023-10-09T10:04:01;19.50;99.90
39021;DHT22;25188;51.958;5.842;2023-10-09T10:06:30;19.50;99.90
39021;DHT22;25188;51.958;5.842;2023-10-09T10:08:58;19.60;99.90
39021;DHT22;25188;51.958;5.842;2023-10-09T10:11:44;19.60;99.90
39021;DHT22;25188;51.958;5.842;2023-10-09T10:14:13;19.70;99.90
39021;DHT22;25188;51.958;5.842;2023-10-09T10:17:07;19.80;99.80
39021;DHT22;25188;51.958;5.842;2023-10-09T10:20:08;19.80;99.70
39021;DHT22;25188;51.958;5.842;2023-10-09T10:22:43;20.00;99.40
39021;DHT22;25188;51.958;5.842;2023-10-09T10:25:32;20.00;99.00
39021;DHT22;25188;51.958;5.842;2023-10-09T10:28:36;20.00;98.70
39021;DHT22;25188;51.958;5.842;2023-10-09T10:31:10;20.10;98.50
39021;DHT22;25188;51.958;5.842;2023-10-09T10:36:24;20.20;98.10
39021;DHT22;25188;51.958;5.842;2023-10-09T10:39:03;20.20;98.00
39021;DHT22;25188;51.958;5.842;2023-10-09T10:41:30;20.30;97.80
39021;DHT22;25188;51.958;5.842;2023-10-09T10:44:01;20.30;97.70
39021;DHT22;25188;51.958;5.842;2023-10-09T10:46:47;20.40;97.40
39021;DHT22;25188;51.958;5.842;2023-10-09T10:49:19;20.40;97.10
39021;DHT22;25188;51.958;5.842;2023-10-09T10:51:50;20.40;97.00
39021;DHT22;25188;51.958;5.842;2023-10-09T10:54:27;20.40;97.00
39021;DHT22;25188;51.958;5.842;2023-10-09T10:56:59;20.40;97.00
39021;DHT22;25188;51.958;5.842;2023-10-09T10:59:30;20.60;96.80
39021;DHT22;25188;51.958;5.842;2023-10-09T11:02:09;20.60;96.30
39021;DHT22;25188;51.958;5.842;2023-10-09T11:04:35;20.70;96.20
39021;DHT22;25188;51.958;5.842;2023-10-09T11:07:04;20.70;96.20
39021;DHT22;25188;51.958;5.842;2023-10-09T11:09:54;20.80;96.20
39021;DHT22;25188;51.958;5.842;2023-10-09T11:12:30;21.00;95.70
39021;DHT22;25188;51.958;5.842;2023-10-09T11:15:08;21.20;95.20
39021;DHT22;25188;51.958;5.842;2023-10-09T11:17:59;21.30;95.10
39021;DHT22;25188;51.958;5.842;2023-10-09T11:20:34;21.40;94.80
39021;DHT22;25188;51.958;5.842;2023-10-09T11:23:01;21.50;94.60
39021;DHT22;25188;51.958;5.842;2023-10-09T11:25:37;21.60;94.30
39021;DHT22;25188;51.958;5.842;2023-10-09T11:28:21;21.70;93.80
39021;DHT22;25188;51.958;5.842;2023-10-09T11:31:11;21.80;93.70
39021;DHT22;25188;51.958;5.842;2023-10-09T11:33:43;21.70;93.30
39021;DHT22;25188;51.958;5.842;2023-10-09T11:36:09;21.80;93.20
39021;DHT22;25188;51.958;5.842;2023-10-09T11:38:36;21.90;93.00
39021;DHT22;25188;51.958;5.842;2023-10-09T11:41:14;21.90;92.90
39021;DHT22;25188;51.958;5.842;2023-10-09T11:43:46;22.00;92.70
39021;DHT22;25188;51.958;5.842;2023-10-09T11:46:21;22.00;92.40
39021;DHT22;25188;51.958;5.842;2023-10-09T11:49:07;22.20;91.90
39021;DHT22;25188;51.958;5.842;2023-10-09T11:51:41;22.30;91.80
39021;DHT22;25188;51.958;5.842;2023-10-09T11:54:33;22.30;91.30
39021;DHT22;25188;51.958;5.842;2023-10-09T11:56:59;22.40;91.00
39021;DHT22;25188;51.958;5.842;2023-10-09T11:59:31;22.40;90.70
39021;DHT22;25188;51.958;5.842;2023-10-09T12:02:08;22.40;90.30
39021;DHT22;25188;51.958;5.842;2023-10-09T12:04:38;22.40;90.30
39021;DHT22;25188;51.958;5.842;2023-10-09T12:07:10;22.40;90.10
39021;DHT22;25188;51.958;5.842;2023-10-09T12:09:37;22.40;90.20
39021;DHT22;25188;51.958;5.842;2023-10-09T12:12:07;22.40;90.00
39021;DHT22;25188;51.958;5.842;2023-10-09T12:14:34;22.50;90.00
39021;DHT22;25188;51.958;5.842;2023-10-09T12:17:04;22.50;89.50
39021;DHT22;25188;51.958;5.842;2023-10-09T12:19:37;22.60;89.40
39021;DHT22;25188;51.958;5.842;2023-10-09T12:22:05;22.60;89.30
39021;DHT22;25188;51.958;5.842;2023-10-09T12:24:34;22.60;88.80
39021;DHT22;25188;51.958;5.842;2023-10-09T12:27:00;22.50;88.50
39021;DHT22;25188;51.958;5.842;2023-10-09T12:29:26;22.50;88.40
39021;DHT22;25188;51.958;5.842;2023-10-09T12:31:58;22.40;88.30
39021;DHT22;25188;51.958;5.842;2023-10-09T12:34:25;22.40;88.60
39021;DHT22;25188;51.958;5.842;2023-10-09T12:36:55;22.40;88.50
39021;DHT22;25188;51.958;5.842;2023-10-09T12:39:21;22.40;88.30
39021;DHT22;25188;51.958;5.842;2023-10-09T12:41:50;22.50;87.50
39021;DHT22;25188;51.958;5.842;2023-10-09T12:44:19;22.50;87.00
39021;DHT22;25188;51.958;5.842;2023-10-09T12:46:48;22.40;86.60
39021;DHT22;25188;51.958;5.842;2023-10-09T12:49:20;22.40;86.00
39021;DHT22;25188;51.958;5.842;2023-10-09T12:51:51;22.30;86.30
39021;DHT22;25188;51.958;5.842;2023-10-09T12:54:17;22.30;86.40
39021;DHT22;25188;51.958;5.842;2023-10-09T12:56:50;22.20;86.20
39021;DHT22;25188;51.958;5.842;2023-10-09T12:59:15;22.10;86.20
39021;DHT22;25188;51.958;5.842;2023-10-09T13:01:41;22.00;86.30
39021;DHT22;25188;51.958;5.842;2023-10-09T13:04:14;21.90;86.60
39021;DHT22;25188;51.958;5.842;2023-10-09T13:06:43;21.80;86.80
39021;DHT22;25188;51.958;5.842;2023-10-09T13:09:17;21.80;87.10
39021;DHT22;25188;51.958;5.842;2023-10-09T13:12:00;21.80;87.30
39021;DHT22;25188;51.958;5.842;2023-10-09T13:14:27;21.80;87.50
39021;DHT22;25188;51.958;5.842;2023-10-09T13:16:53;21.80;87.60
39021;DHT22;25188;51.958;5.842;2023-10-09T13:19:20;21.80;87.70
39021;DHT22;25188;51.958;5.842;2023-10-09T13:21:49;21.80;87.60
39021;DHT22;25188;51.958;5.842;2023-10-09T13:24:15;21.80;87.70
39021;DHT22;25188;51.958;5.842;2023-10-09T13:26:42;21.70;87.70
39021;DHT22;25188;51.958;5.842;2023-10-09T13:29:10;21.60;87.80
39021;DHT22;25188;51.958;5.842;2023-10-09T13:31:37;21.60;88.00
39021;DHT22;25188;51.958;5.842;2023-10-09T13:34:05;21.60;88.20
39021;DHT22;25188;51.958;5.842;2023-10-09T13:36:35;21.60;88.40
39021;DHT22;25188;51.958;5.842;2023-10-09T13:39:07;21.60;88.60
39021;DHT22;25188;51.958;5.842;2023-10-09T13:41:58;21.50;88.80
39021;DHT22;25188;51.958;5.842;2023-10-09T13:44:34;21.60;89.00
39021;DHT22;25188;51.958;5.842;2023-10-09T13:47:01;21.60;89.10
39021;DHT22;25188;51.958;5.842;2023-10-09T13:49:30;21.60;89.30
39021;DHT22;25188;51.958;5.842;2023-10-09T13:51:57;21.60;89.30
39021;DHT22;25188;51.958;5.842;2023-10-09T13:54:24;21.60;89.40
39021;DHT22;25188;51.958;5.842;2023-10-09T13:57:09;21.50;89.40
39021;DHT22;25188;51.958;5.842;2023-10-09T13:59:36;21.50;89.50
39021;DHT22;25188;51.958;5.842;2023-10-09T14:02:03;21.40;89.50
39021;DHT22;25188;51.958;5.842;2023-10-09T14:04:35;21.40;89.60
39021;DHT22;25188;51.958;5.842;2023-10-09T14:07:01;21.50;89.80
39021;DHT22;25188;51.958;5.842;2023-10-09T14:09:32;21.40;89.90
39021;DHT22;25188;51.958;5.842;2023-10-09T14:12:04;21.40;90.00
39021;DHT22;25188;51.958;5.842;2023-10-09T14:14:39;21.30;90.00
39021;DHT22;25188;51.958;5.842;2023-10-09T14:17:15;21.30;90.10
39021;DHT22;25188;51.958;5.842;2023-10-09T14:19:47;21.30;90.10
39021;DHT22;25188;51.958;5.842;2023-10-09T14:22:18;21.30;90.20
39021;DHT22;25188;51.958;5.842;2023-10-09T14:24:48;21.30;90.20
39021;DHT22;25188;51.958;5.842;2023-10-09T14:27:21;21.30;90.30
39021;DHT22;25188;51.958;5.842;2023-10-09T14:29:49;21.30;90.40
39021;DHT22;25188;51.958;5.842;2023-10-09T14:32:15;21.20;90.40
39021;DHT22;25188;51.958;5.842;2023-10-09T14:34:42;21.20;90.40
39021;DHT22;25188;51.958;5.842;2023-10-09T14:37:20;21.10;90.50
39021;DHT22;25188;51.958;5.842;2023-10-09T14:39:47;21.10;90.50
39021;DHT22;25188;51.958;5.842;2023-10-09T14:42:16;21.10;90.60
39021;DHT22;25188;51.958;5.842;2023-10-09T14:44:42;21.10;90.70
39021;DHT22;25188;51.958;5.842;2023-10-09T14:47:10;21.10;90.80
39021;DHT22;25188;51.958;5.842;2023-10-09T14:49:36;21.10;90.80
39021;DHT22;25188;51.958;5.842;2023-10-09T14:52:09;21.00;90.80
39021;DHT22;25188;51.958;5.842;2023-10-09T14:54:36;21.00;90.90
39021;DHT22;25188;51.958;5.842;2023-10-09T14:57:03;21.00;91.00
39021;DHT22;25188;51.958;5.842;2023-10-09T14:59:32;21.00;91.10
39021;DHT22;25188;51.958;5.842;2023-10-09T15:01:59;21.00;91.20
39021;DHT22;25188;51.958;5.842;2023-10-09T15:04:25;21.00;91.20
39021;DHT22;25188;51.958;5.842;2023-10-09T15:06:53;20.90;91.30
39021;DHT22;25188;51.958;5.842;2023-10-09T15:09:19;21.00;91.30
39021;DHT22;25188;51.958;5.842;2023-10-09T15:11:51;20.90;91.40
39021;DHT22;25188;51.958;5.842;2023-10-09T15:14:17;21.00;91.40
39021;DHT22;25188;51.958;5.842;2023-10-09T15:16:47;21.00;91.50
39021;DHT22;25188;51.958;5.842;2023-10-09T15:19:14;21.00;91.50
39021;DHT22;25188;51.958;5.842;2023-10-09T15:21:42;21.00;91.50
39021;DHT22;25188;51.958;5.842;2023-10-09T15:24:14;21.00;91.50
39021;DHT22;25188;51.958;5.842;2023-10-09T15:26:48;21.00;91.40
39021;DHT22;25188;51.958;5.842;2023-10-09T15:29:18;21.00;91.40
39021;DHT22;25188;51.958;5.842;2023-10-09T15:31:45;21.00;91.40
39021;DHT22;25188;51.958;5.842;2023-10-09T15:34:12;21.00;91.40
39021;DHT22;25188;51.958;5.842;2023-10-09T15:36:38;21.00;91.40
39021;DHT22;25188;51.958;5.842;2023-10-09T15:39:05;20.90;91.40
39021;DHT22;25188;51.958;5.842;2023-10-09T15:41:33;20.90;91.40
39021;DHT22;25188;51.958;5.842;2023-10-09T15:44:00;20.90;91.40
39021;DHT22;25188;51.958;5.842;2023-10-09T15:46:27;20.80;91.40
39021;DHT22;25188;51.958;5.842;2023-10-09T15:48:58;20.80;91.50
39021;DHT22;25188;51.958;5.842;2023-10-09T15:51:26;20.70;91.50
39021;DHT22;25188;51.958;5.842;2023-10-09T15:53:52;20.70;91.50
39021;DHT22;25188;51.958;5.842;2023-10-09T15:56:18;20.70;91.60
39021;DHT22;25188;51.958;5.842;2023-10-09T15:58:44;20.60;91.70
39021;DHT22;25188;51.958;5.842;2023-10-09T16:01:14;20.60;91.70
39021;DHT22;25188;51.958;5.842;2023-10-09T16:03:41;20.60;91.80
39021;DHT22;25188;51.958;5.842;2023-10-09T16:06:09;20.50;91.90
39021;DHT22;25188;51.958;5.842;2023-10-09T16:08:41;20.50;92.00
39021;DHT22;25188;51.958;5.842;2023-10-09T16:11:08;20.50;92.00
39021;DHT22;25188;51.958;5.842;2023-10-09T16:13:34;20.40;92.10
39021;DHT22;25188;51.958;5.842;2023-10-09T16:16:00;20.40;92.20
39021;DHT22;25188;51.958;5.842;2023-10-09T16:18:27;20.40;92.20